Aktualne dane pomiarowe

Uwaga, wersja testowa! Automatyczne pobieranie danych za pomocą narzędzi lub skryptów to umożliwiających jest zabronione.

Dane meteo z obszaru Polski uzyskane na podstawie depesz SYNOP pobieranych co godzinę z NWS. Najedź myszką na symbol przedstawiony w tabeli, aby uzyskać informacje co do jego znaczenia. Prosimy pamiętać, że to testowa wersja strony, która jeszcze nie jest ukończona. Stworzono również jest krótki FAQ dotyczący korzystania z tej podstrony Anomalie temperatury w chwili obecnej odniesione są do okresu referencyjnego 1951-2016. Okres ten będzie później zmieniony na 1981-2010. Kliknij ikonę aby pobrać plik CSV. Kliknij ikonę aby wygenerować mapę synoptyczną dla danego terminu.

Wybierz Datę:    

        

Mińsk Mazowiecki (12376)

Dane terminowe dla wybranej stacji. Kliknij datę, aby otrzymać dane z tego terminu dla wszystkich stacji.

TemperaturaZachmurzenieWiatrCiśnienieOpadyPogoda
 Data t td wb tx tn tg rh  Nt Nl Cl Cm Ch ws wd g1 g2 wx mslp ppp ch 24h 12h t ww ww w1 w2  
2019-06-30 23:00:00 24.2 11.6 16.6--- 4565.0wx-3wx---1010.4 989.3 -0.5---------
2019-06-30 22:00:00 24.8 11.4 16.7--- 4310.0wx-3wx---1010.5 989.5 -0.4---------
2019-06-30 21:00:00 25.4 12.0 17.3--- 4310.0wx-2wx---1010.8 989.8 -0.4---------
2019-06-30 20:00:00 24.1 12.8 17.1--- 4910.0wx-1wx---1010.9 989.8 -0.7---------
2019-06-30 19:00:00 25.3 13.5 17.9--- 4810.0wx-2wx---1010.9 989.9 -1.2---------
2019-06-30 18:00:00 28.8 13.5 19.3--- 3910.0wx-1wx---1011.0 990.2 -1.5---------
2019-06-30 17:00:00 32.2 12.5 20.1--- 3010.0wx-2wx---1011.0 990.5 -1.7---------
2019-06-30 16:00:00 32.8 9.6 19.0--- 2410.0wx-4wx---1011.6 991.1 -1.8---------
2019-06-30 15:00:00 33.0 9.2 18.9--- 2310.0wx-4wx---1012.2 991.7 -1.8---------
2019-06-30 14:00:00 32.8 8.3 18.4--- 2210.0wx-5wx---1012.8 992.2 -1.7---------
2019-06-30 13:00:00 31.7 8.7 18.2--- 2410.0wx-5wx---1013.5 992.9 -1.5---------
2019-06-30 12:00:00 31.1 8.8 18.0--- 2510.0wx-7wx---1014.2 993.5 -1.1---------
2019-06-30 11:00:00 29.7 9.8 17.9--- 2910.0wx-5wx---1014.8 994.0 -0.5---------
2019-06-30 10:00:00 28.1 10.4 17.6--- 3310.0wx-5wx---1015.3 994.4 -0.4---------
2019-06-30 09:00:00 27.3 11.0 17.6--- 3610.0wx-5wx---1015.6 994.6 -0.4---------
2019-06-30 08:00:00 25.8 12.3 17.6--- 4310.0wx-6wx---1015.6 994.5 -0.2---------
2019-06-30 07:00:00 24.1 11.5 16.5--- 4510.0wx-5wx---1016.0 994.8 0.1---------
2019-06-30 06:00:00 21.5 11.3 15.3--- 5210.0wx-4wx---1016.4 995.0 0.5---------
2019-06-30 05:00:00 18.5 11.5 14.1--- 6410.0wx-wx3wx---1016.4 994.8 0.4---------
2019-06-30 04:00:00 16.0 11.0 12.8--- 7210.0wx-wx2wx---1016.5 994.7 0.3---------
2019-06-30 03:00:00 12.7 9.7 10.7--- 8210.0wx-wx1wx---1016.5 994.5 0.2---------
2019-06-30 02:00:00 12.6 8.7 10.1--- 7710.0wx-wx1wx---1016.5 994.5 -0.1---------
2019-06-30 01:00:00 13.8 9.1 10.9--- 7310.0wx-wx1wx---1016.3 994.4 -0.7---------
2019-06-30 00:00:00 14.3 8.7 10.9--- 6910.0wx-1wx---1016.2 994.3 -0.9---------
2019-06-29 23:00:00 15.0 8.9 11.3--- 6710.0wx-3wx---1016.4 994.6 -0.7---------
2019-06-29 22:00:00 14.6 10.1 11.7--- 7410.0wx-1wx---1017.0 995.1 -0.3---------
2019-06-29 21:00:00 15.3 10.5 12.2--- 7310.0wx-1wx---1017.1 995.2 -0.3---------
2019-06-29 20:00:00 16.9 9.9 12.6--- 6310.0wx-1----1017.0 995.3 0.1---------
2019-06-29 19:00:00 19.5 9.7 13.7--- 5310.0wx-1wx---1016.9 995.4 0.2---------
2019-06-29 18:00:00 23.3 8.6 14.9--- 3910.0wx-wx3wx---1016.7 995.4 0.4---------
2019-06-29 17:00:00 25.0 7.2 15.0--- 3210.0wx-wx5wx---1016.4 995.2 -0.4---------
2019-06-29 16:00:00 26.0 7.1 15.4--- 3010.0wxwxwx7wx---1016.3 995.2 -1.0---------
2019-06-29 15:00:00 25.8 7.4 15.4--- 3110.0wxwxwx6wx---1016.1 995.0 -1.6---------
2019-06-29 14:00:00 25.8 8.4 15.8--- 3310.0wxwxwx9wx---1016.7 995.6 -1.5---------
2019-06-29 13:00:00 25.5 8.1 15.6--- 3310.0wxwxwx7wx---1017.3 996.2 -1.2---------
2019-06-29 12:00:00 24.9 8.7 15.6--- 3610.0wxwxwxwx7wx---1017.8 996.6 -0.9---------
2019-06-29 11:00:00 23.6 8.1 14.8--- 3710.0wxwxwxwx8wx---1018.5 997.2 -0.4---------
2019-06-29 10:00:00 22.9 8.6 14.7--- 4010.0wxwxwxwx8wx---1018.7 997.4 -0.6---------
2019-06-29 09:00:00 22.2 9.7 14.9--- 4510.0wx-wx8wx13--1019.0 997.6 -0.9---------
2019-06-29 08:00:00 20.5 7.9 13.3--- 4410.0wx-wx9wx---1019.1 997.6 -1.0---------
2019-06-29 07:00:00 18.8 8.2 12.7--- 5010.0wx-wx7wx---1019.7 998.0 -0.7---------
2019-06-29 06:00:00 16.5 8.5 11.8--- 5910.0wxwxwxwx6wx---1020.3 998.5 -0.2---------
2019-06-29 05:00:00 14.1 8.9 10.9--- 7110.0wx-wx4wx---1020.6 998.6 0.0---------
2019-06-29 04:00:00 13.3 8.2 10.2--- 7110.0wx-wx3wx---1020.8 998.7 0.3---------
2019-06-29 03:00:00 10.9 7.6 8.8--- 8010.0wxwxwx2wx---1021.0 998.7 0.3---------
2019-06-29 02:00:00 11.0 7.1 8.6--- 7710.0wx-3wx---1021.0 998.7 0.2---------
2019-06-29 01:00:00 11.1 6.3 8.2--- 7210.0wx-3wx---1020.7 998.4 0.0---------
2019-06-29 00:00:00 11.9 6.2 8.5--- 6810.0wx-3wx---1020.6 998.4 0.3---------
3.9 ms

 

Print Friendly, PDF & Email